createdAt,value
2023-05-03T00:00:05.643Z,5.82
2023-05-03T00:01:05.388Z,5.89
2023-05-03T00:02:05.453Z,5.81
2023-05-03T00:03:05.462Z,5.87
2023-05-03T00:04:05.466Z,5.81
2023-05-03T00:05:06.087Z,5.73
2023-05-03T00:06:05.524Z,5.73
2023-05-03T00:07:05.547Z,5.59
2023-05-03T00:08:05.571Z,5.67
2023-05-03T00:09:05.609Z,5.59
2023-05-03T00:10:05.838Z,5.64
2023-05-03T00:11:05.632Z,5.59
2023-05-03T00:12:05.658Z,5.57
2023-05-03T00:13:05.678Z,5.62
2023-05-03T00:14:05.701Z,5.57
2023-05-03T00:15:05.726Z,5.52
2023-05-03T00:16:05.761Z,5.55
2023-05-03T00:17:05.822Z,5.55
2023-05-03T00:18:05.855Z,5.52
2023-05-03T00:19:05.842Z,5.49
2023-05-03T00:20:06.044Z,5.54
2023-05-03T00:21:05.895Z,5.44
2023-05-03T00:22:05.895Z,5.46
2023-05-03T00:23:05.917Z,5.41
2023-05-03T00:24:05.946Z,5.36
2023-05-03T00:25:05.964Z,5.45
2023-05-03T00:26:06.033Z,5.33
2023-05-03T00:27:06.011Z,5.45
2023-05-03T00:28:06.043Z,5.37
2023-05-03T00:29:06.062Z,5.31
2023-05-03T00:30:06.134Z,5.37
2023-05-03T00:31:06.197Z,5.34
2023-05-03T00:32:06.139Z,5.42
2023-05-03T00:33:06.208Z,5.37
2023-05-03T00:34:06.183Z,5.30
2023-05-03T00:35:06.213Z,5.28
2023-05-03T00:36:06.232Z,5.27
2023-05-03T00:37:06.271Z,5.27
2023-05-03T00:38:06.281Z,5.26
2023-05-03T00:39:06.311Z,5.18
2023-05-03T00:40:06.446Z,5.21
2023-05-03T00:41:06.351Z,5.15
2023-05-03T00:42:06.386Z,5.30
2023-05-03T00:43:06.405Z,5.20
2023-05-03T00:44:06.431Z,5.10
2023-05-03T00:45:06.478Z,5.06
2023-05-03T00:46:16.154Z,5.15
2023-05-03T00:47:06.531Z,5.00
2023-05-03T00:48:06.581Z,5.03
2023-05-03T00:49:06.539Z,5.02
2023-05-03T00:50:06.831Z,5.06
2023-05-03T00:51:06.587Z,5.08
2023-05-03T00:52:06.637Z,5.12
2023-05-03T00:53:06.652Z,5.08
2023-05-03T00:54:06.662Z,5.08
2023-05-03T00:55:06.691Z,5.13
2023-05-03T00:56:06.710Z,5.03
2023-05-03T00:57:06.726Z,5.08
2023-05-03T00:58:06.753Z,5.15
2023-05-03T00:59:06.775Z,4.98
2023-05-03T01:00:06.800Z,5.08
2023-05-03T01:01:06.825Z,4.98
2023-05-03T01:02:06.888Z,4.95
2023-05-03T01:03:06.987Z,5.09
2023-05-03T01:04:06.983Z,4.98
2023-05-03T01:05:06.914Z,4.94
2023-05-03T01:06:06.951Z,5.00
2023-05-03T01:07:06.962Z,4.95
2023-05-03T01:08:06.990Z,4.95
2023-05-03T01:09:07.036Z,4.92
2023-05-03T01:10:07.031Z,4.88
2023-05-03T01:11:07.056Z,4.75
2023-05-03T01:12:07.085Z,4.75
2023-05-03T01:13:07.106Z,4.66
2023-05-03T01:14:07.127Z,4.68
2023-05-03T01:15:07.162Z,4.69
2023-05-03T01:16:07.204Z,4.69
2023-05-03T01:17:07.193Z,4.66
2023-05-03T01:18:07.243Z,4.60
2023-05-03T01:19:07.243Z,4.75
2023-05-03T01:20:07.282Z,4.76
2023-05-03T01:21:07.294Z,4.83
2023-05-03T01:22:07.315Z,4.76
2023-05-03T01:23:07.337Z,4.74
2023-05-03T01:24:07.367Z,4.74
2023-05-03T01:25:07.463Z,4.66
2023-05-03T01:26:07.410Z,4.58
2023-05-03T01:27:07.435Z,4.64
2023-05-03T01:28:07.471Z,4.61
2023-05-03T01:29:07.476Z,4.64
2023-05-03T01:30:07.504Z,4.60
2023-05-03T01:31:07.584Z,4.53
2023-05-03T01:32:07.596Z,4.56
2023-05-03T01:33:07.682Z,4.57
2023-05-03T01:34:07.595Z,4.57
2023-05-03T01:35:07.626Z,4.61
2023-05-03T01:36:07.676Z,4.57
2023-05-03T01:37:07.676Z,4.61
2023-05-03T01:38:07.700Z,4.50
2023-05-03T01:39:07.711Z,4.51
2023-05-03T01:40:07.736Z,4.51
2023-05-03T01:41:07.795Z,4.58
2023-05-03T01:42:07.795Z,4.53
2023-05-03T01:43:07.803Z,4.51
2023-05-03T01:44:07.832Z,4.50
2023-05-03T01:45:07.862Z,4.58
2023-05-03T01:46:07.913Z,4.51
2023-05-03T01:47:07.912Z,4.51
2023-05-03T01:48:07.979Z,4.54
2023-05-03T01:49:07.954Z,4.60
2023-05-03T01:50:07.978Z,4.57
2023-05-03T01:51:07.997Z,4.51
2023-05-03T01:52:08.021Z,4.51
2023-05-03T01:53:08.041Z,4.56
2023-05-03T01:54:08.075Z,4.57
2023-05-03T01:55:08.091Z,4.51
2023-05-03T01:56:08.112Z,4.53
2023-05-03T01:57:08.167Z,4.46
2023-05-03T01:58:08.178Z,4.50
2023-05-03T01:59:08.194Z,4.40
2023-05-03T02:00:08.231Z,4.40
2023-05-03T02:01:08.315Z,4.44
2023-05-03T02:02:08.255Z,4.39
2023-05-03T02:03:08.391Z,4.21
2023-05-03T02:04:08.310Z,4.24
2023-05-03T02:05:08.328Z,4.30
2023-05-03T02:06:08.400Z,4.36
2023-05-03T02:07:08.374Z,4.39
2023-05-03T02:08:08.405Z,4.36
2023-05-03T02:09:08.420Z,4.28
2023-05-03T02:10:08.463Z,4.38
2023-05-03T02:11:08.464Z,4.33
2023-05-03T02:12:08.490Z,4.29
2023-05-03T02:13:08.541Z,4.26
2023-05-03T02:14:08.536Z,4.29
2023-05-03T02:15:08.557Z,4.24
2023-05-03T02:16:08.592Z,4.26
2023-05-03T02:17:08.765Z,4.29
2023-05-03T02:18:08.633Z,4.24
2023-05-03T02:19:08.650Z,4.30
2023-05-03T02:20:08.674Z,4.28
2023-05-03T02:21:08.697Z,4.28
2023-05-03T02:22:08.735Z,4.21
2023-05-03T02:23:08.743Z,4.20
2023-05-03T02:24:08.775Z,4.21
2023-05-03T02:25:08.792Z,4.20
2023-05-03T02:26:08.815Z,4.24
2023-05-03T02:27:08.847Z,4.14
2023-05-03T02:28:08.862Z,4.12
2023-05-03T02:29:08.905Z,4.14
2023-05-03T02:30:08.923Z,4.15
2023-05-03T02:31:08.989Z,4.21
2023-05-03T02:32:08.987Z,4.17
2023-05-03T02:33:09.002Z,4.14
2023-05-03T02:34:09.000Z,4.10
2023-05-03T02:35:09.021Z,4.10
2023-05-03T02:36:09.051Z,4.08
2023-05-03T02:37:09.066Z,4.10
2023-05-03T02:38:09.100Z,4.00
2023-05-03T02:39:09.122Z,4.08
2023-05-03T02:40:09.140Z,4.12
2023-05-03T02:41:09.167Z,4.02
2023-05-03T02:42:09.201Z,4.00
2023-05-03T02:43:09.212Z,4.02
2023-05-03T02:44:09.233Z,4.00
2023-05-03T02:45:09.298Z,3.89
2023-05-03T02:46:09.311Z,3.99
2023-05-03T02:47:09.449Z,4.02
2023-05-03T02:48:09.418Z,3.96
2023-05-03T02:49:09.473Z,3.97
2023-05-03T02:50:09.444Z,3.93
2023-05-03T02:51:09.414Z,3.92
2023-05-03T02:52:09.416Z,3.99
2023-05-03T02:53:09.519Z,3.90
2023-05-03T02:54:09.461Z,3.86
2023-05-03T02:55:09.485Z,3.93
2023-05-03T02:56:09.507Z,3.90
2023-05-03T02:57:09.538Z,3.86
2023-05-03T02:58:09.574Z,3.89
2023-05-03T02:59:09.581Z,3.92
2023-05-03T03:00:09.616Z,3.85
2023-05-03T03:01:09.692Z,3.72
2023-05-03T03:02:09.645Z,3.71
2023-05-03T03:04:09.834Z,3.81
2023-05-03T03:05:09.715Z,3.85
2023-05-03T03:06:09.819Z,3.81
2023-05-03T03:07:09.762Z,3.86
2023-05-03T03:08:09.783Z,3.86
2023-05-03T03:09:09.811Z,3.86
2023-05-03T03:10:09.826Z,3.90
2023-05-03T03:11:09.853Z,3.89
2023-05-03T03:12:09.876Z,3.89
2023-05-03T03:13:09.901Z,3.86
2023-05-03T03:14:09.921Z,3.84
2023-05-03T03:15:09.945Z,3.79
2023-05-03T03:16:10.005Z,3.90
2023-05-03T03:17:10.018Z,3.82
2023-05-03T03:18:10.101Z,3.85
2023-05-03T03:19:10.049Z,3.86
2023-05-03T03:20:10.063Z,3.90
2023-05-03T03:21:10.106Z,3.86
2023-05-03T03:22:10.108Z,3.84
2023-05-03T03:23:10.133Z,3.86
2023-05-03T03:24:10.178Z,3.84
2023-05-03T03:25:10.215Z,3.81
2023-05-03T03:26:10.211Z,3.93
2023-05-03T03:27:10.261Z,3.84
2023-05-03T03:28:10.247Z,3.85
2023-05-03T03:29:10.471Z,3.75
2023-05-03T03:30:10.445Z,3.61
2023-05-03T03:31:10.444Z,3.64
2023-05-03T03:32:10.439Z,3.75
2023-05-03T03:33:10.481Z,3.79
2023-05-03T03:34:10.385Z,3.60
2023-05-03T03:35:10.439Z,3.67
2023-05-03T03:36:10.433Z,3.69
2023-05-03T03:37:10.456Z,3.64
2023-05-03T03:38:10.476Z,3.67
2023-05-03T03:39:10.502Z,3.69
2023-05-03T03:40:10.523Z,3.63
2023-05-03T03:41:10.559Z,3.71
2023-05-03T03:42:10.569Z,3.63
2023-05-03T03:43:10.598Z,3.69
2023-05-03T03:44:10.616Z,3.72
2023-05-03T03:45:10.638Z,3.75
2023-05-03T03:46:10.681Z,3.66
2023-05-03T03:47:10.759Z,3.72
2023-05-03T03:48:10.739Z,3.61
2023-05-03T03:49:10.748Z,3.69
2023-05-03T03:50:10.753Z,3.72
2023-05-03T03:51:10.775Z,3.69
2023-05-03T03:52:10.818Z,3.61
2023-05-03T03:53:10.821Z,3.72
2023-05-03T03:54:10.849Z,3.67
2023-05-03T03:55:10.866Z,3.72
2023-05-03T03:56:10.894Z,3.72
2023-05-03T03:57:10.913Z,3.69
2023-05-03T03:58:10.943Z,3.71
2023-05-03T03:59:10.959Z,3.69
2023-05-03T04:00:10.986Z,3.64
2023-05-03T04:01:11.006Z,3.63
2023-05-03T04:02:11.048Z,3.49
2023-05-03T04:03:11.236Z,3.56
2023-05-03T04:04:11.198Z,3.43
2023-05-03T04:05:11.114Z,3.40
2023-05-03T04:06:11.171Z,3.43
2023-05-03T04:07:11.146Z,3.42
2023-05-03T04:08:11.163Z,3.35
2023-05-03T04:09:11.187Z,3.46
2023-05-03T04:10:11.214Z,3.48
2023-05-03T04:11:11.233Z,3.48
2023-05-03T04:12:11.258Z,3.46
2023-05-03T04:13:11.282Z,3.57
2023-05-03T04:14:11.303Z,3.66
2023-05-03T04:15:11.323Z,3.54
2023-05-03T04:16:11.345Z,3.61
2023-05-03T04:17:11.401Z,3.53
2023-05-03T04:18:11.474Z,3.57
2023-05-03T04:19:11.429Z,3.67
2023-05-03T04:20:11.436Z,3.71
2023-05-03T04:21:11.480Z,3.72
2023-05-03T04:22:11.501Z,3.75
2023-05-03T04:23:11.507Z,3.61
2023-05-03T04:24:11.530Z,3.71
2023-05-03T04:25:11.563Z,3.67
2023-05-03T04:26:23.549Z,3.69
2023-05-03T04:27:11.600Z,3.69
2023-05-03T04:28:11.628Z,3.75
2023-05-03T04:29:11.684Z,3.66
2023-05-03T04:30:11.665Z,3.64
2023-05-03T04:31:11.713Z,3.57
2023-05-03T04:32:11.714Z,3.66
2023-05-03T04:33:11.804Z,3.72
2023-05-03T04:34:11.758Z,3.67
2023-05-03T04:35:11.784Z,3.74
2023-05-03T04:36:11.807Z,3.74
2023-05-03T04:37:11.849Z,3.69
2023-05-03T04:38:11.873Z,3.78
2023-05-03T04:39:11.876Z,3.69
2023-05-03T04:40:11.896Z,3.79
2023-05-03T04:41:14.027Z,3.84
2023-05-03T04:42:11.944Z,3.84
2023-05-03T04:43:11.966Z,3.85
2023-05-03T04:44:11.988Z,3.90
2023-05-03T04:45:12.048Z,3.86
2023-05-03T04:46:12.080Z,3.92
2023-05-03T04:47:12.059Z,4.02
2023-05-03T04:48:12.149Z,4.03
2023-05-03T04:49:12.116Z,4.15
2023-05-03T04:50:12.131Z,4.21
2023-05-03T04:51:12.158Z,4.30
2023-05-03T04:52:12.176Z,4.29
2023-05-03T04:53:12.218Z,4.39
2023-05-03T04:54:12.262Z,4.46
2023-05-03T04:55:12.248Z,4.47
2023-05-03T04:56:12.267Z,4.54
2023-05-03T04:57:12.292Z,4.50
2023-05-03T04:58:12.314Z,4.56
2023-05-03T04:59:12.341Z,4.56
2023-05-03T05:00:12.371Z,4.57
2023-05-03T05:01:12.429Z,4.57
2023-05-03T05:02:12.406Z,4.72
2023-05-03T05:03:12.525Z,4.66
2023-05-03T05:04:12.452Z,4.76
2023-05-03T05:05:12.483Z,4.76
2023-05-03T05:06:12.683Z,4.76
2023-05-03T05:07:12.529Z,4.75
2023-05-03T05:08:12.547Z,4.83
2023-05-03T05:09:12.588Z,4.87
2023-05-03T05:10:12.597Z,5.02
2023-05-03T05:11:12.617Z,4.95
2023-05-03T05:12:12.639Z,4.95
2023-05-03T05:13:12.668Z,4.95
2023-05-03T05:14:12.682Z,5.05
2023-05-03T05:15:12.715Z,5.09
2023-05-03T05:16:12.733Z,5.10
2023-05-03T05:17:12.795Z,5.20
2023-05-03T05:18:12.828Z,5.24
2023-05-03T05:19:12.812Z,5.33
2023-05-03T05:20:12.827Z,5.26
2023-05-03T05:21:12.863Z,5.34
2023-05-03T05:22:12.873Z,5.28
2023-05-03T05:23:12.904Z,5.39
2023-05-03T05:24:12.921Z,5.54
2023-05-03T05:25:12.970Z,5.48
2023-05-03T05:26:12.972Z,5.54
2023-05-03T05:27:12.992Z,5.54
2023-05-03T05:28:13.016Z,5.60
2023-05-03T05:29:13.045Z,5.62
2023-05-03T05:30:13.070Z,5.69
2023-05-03T05:31:13.138Z,5.81
2023-05-03T05:32:13.114Z,5.99
2023-05-03T05:33:13.161Z,6.20
2023-05-03T05:34:13.166Z,6.34
2023-05-03T05:35:13.187Z,6.28
2023-05-03T05:36:13.207Z,6.44
2023-05-03T05:37:13.233Z,6.42
2023-05-03T05:38:13.256Z,6.57
2023-05-03T05:39:13.283Z,6.61
2023-05-03T05:40:13.317Z,6.76
2023-05-03T05:41:13.352Z,6.93
2023-05-03T05:42:13.352Z,6.97
2023-05-03T05:43:13.386Z,7.03
2023-05-03T05:44:13.406Z,7.09
2023-05-03T05:45:13.432Z,7.13
2023-05-03T05:46:13.456Z,7.29
2023-05-03T05:47:13.518Z,7.47
2023-05-03T05:48:13.534Z,7.56
2023-05-03T05:49:13.530Z,7.54
2023-05-03T05:50:18.277Z,7.55
2023-05-03T05:51:13.585Z,7.63
2023-05-03T05:52:13.610Z,7.80
2023-05-03T05:53:13.630Z,7.98
2023-05-03T05:54:13.655Z,8.14
2023-05-03T05:55:13.680Z,8.47
2023-05-03T05:56:13.709Z,8.79
2023-05-03T05:57:13.809Z,8.82
2023-05-03T05:58:13.795Z,9.26
2023-05-03T05:59:13.786Z,9.89
2023-05-03T06:00:13.829Z,10.35
2023-05-03T06:01:13.847Z,10.59
2023-05-03T06:02:13.910Z,10.59
2023-05-03T06:03:13.943Z,10.59
2023-05-03T06:04:13.923Z,10.61
2023-05-03T06:05:14.037Z,10.94
2023-05-03T06:06:14.003Z,11.43
2023-05-03T06:07:14.206Z,11.94
2023-05-03T06:08:14.030Z,12.51
2023-05-03T06:09:24.292Z,12.86
2023-05-03T06:10:14.084Z,13.50
2023-05-03T06:11:14.155Z,13.99
2023-05-03T06:12:14.141Z,14.36
2023-05-03T06:13:14.266Z,14.69
2023-05-03T06:14:14.198Z,14.85
2023-05-03T06:15:14.235Z,15.01
2023-05-03T06:16:14.257Z,15.34
2023-05-03T06:17:14.329Z,15.30
2023-05-03T06:18:14.324Z,15.12
2023-05-03T06:19:14.383Z,15.40
2023-05-03T06:20:14.390Z,15.59
2023-05-03T06:21:14.406Z,15.56
2023-05-03T06:22:14.441Z,15.77
2023-05-03T06:23:14.475Z,15.86
2023-05-03T06:24:14.509Z,16.00
2023-05-03T06:25:16.195Z,16.04
2023-05-03T06:26:17.188Z,16.37
2023-05-03T06:27:14.600Z,16.14
2023-05-03T06:28:14.626Z,16.10
2023-05-03T06:29:14.682Z,16.65
2023-05-03T06:30:16.103Z,16.59
2023-05-03T06:31:14.791Z,16.84
2023-05-03T06:32:14.762Z,16.69
2023-05-03T06:34:14.819Z,17.20
2023-05-03T06:35:17.472Z,17.13
2023-05-03T06:37:17.487Z,17.63
2023-05-03T06:38:17.516Z,17.50
2023-05-03T06:39:17.544Z,17.27
2023-05-03T06:40:17.882Z,17.81
2023-05-03T06:42:00.776Z,17.99
2023-05-03T06:43:00.199Z,18.08
2023-05-03T06:44:00.236Z,17.79
2023-05-03T06:45:00.296Z,17.68
2023-05-03T06:46:18.274Z,17.57
2023-05-03T06:47:00.476Z,17.10
2023-05-03T06:48:00.388Z,17.47
2023-05-03T06:49:00.464Z,17.60
2023-05-03T06:50:00.514Z,17.87
2023-05-03T06:51:00.503Z,17.87
2023-05-03T06:52:00.515Z,16.99
2023-05-03T06:53:00.562Z,17.17
2023-05-03T06:54:00.583Z,17.38
2023-05-03T06:55:00.650Z,17.49
2023-05-03T06:56:00.653Z,17.79
2023-05-03T06:57:00.690Z,17.63
2023-05-03T06:58:00.738Z,17.74
2023-05-03T06:59:03.795Z,18.26
2023-05-03T07:00:01.011Z,18.32
2023-05-03T07:01:00.883Z,18.36
2023-05-03T07:04:01.022Z,18.74
2023-05-03T07:05:00.978Z,18.96
2023-05-03T07:06:01.613Z,18.78
2023-05-03T07:07:02.425Z,18.54
2023-05-03T07:08:01.105Z,18.68
2023-05-03T07:09:01.134Z,18.81
2023-05-03T07:10:01.660Z,18.89
2023-05-03T07:11:01.206Z,19.40
2023-05-03T07:12:04.051Z,19.43
2023-05-03T07:13:01.266Z,19.49
2023-05-03T07:14:01.301Z,19.79
2023-05-03T07:15:01.338Z,19.75
2023-05-03T07:16:03.588Z,20.18
2023-05-03T07:17:01.532Z,19.87
2023-05-03T07:18:04.525Z,19.56
2023-05-03T07:19:01.508Z,19.55
2023-05-03T07:21:06.612Z,19.07
2023-05-03T07:23:19.235Z,18.84
2023-05-03T07:24:20.287Z,19.17
2023-05-03T07:25:19.382Z,19.64
2023-05-03T07:26:19.350Z,19.85
2023-05-03T07:27:19.392Z,20.02
2023-05-03T07:28:19.423Z,19.90
2023-05-03T07:29:19.669Z,19.89
2023-05-03T07:30:19.527Z,19.89
2023-05-03T07:33:27.291Z,20.46
2023-05-03T07:34:27.226Z,20.29
2023-05-03T07:35:27.275Z,20.42
2023-05-03T07:36:27.304Z,20.54
2023-05-03T07:37:27.342Z,20.27
2023-05-03T07:38:27.392Z,20.56
2023-05-03T07:39:27.428Z,20.48
2023-05-03T07:40:27.453Z,20.26
2023-05-03T07:41:27.491Z,19.98
2023-05-03T07:42:27.537Z,19.87
2023-05-03T07:43:27.574Z,19.82
2023-05-03T07:44:27.605Z,19.70
2023-05-03T07:45:27.833Z,19.85
2023-05-03T07:46:27.692Z,20.15
2023-05-03T07:47:27.741Z,20.44
2023-05-03T07:48:27.757Z,20.35
2023-05-03T07:49:27.816Z,20.11
2023-05-03T07:50:27.843Z,20.29
2023-05-03T07:51:27.870Z,20.38
2023-05-03T07:52:27.907Z,20.44
2023-05-03T07:53:27.945Z,20.40
2023-05-03T07:54:27.990Z,20.42
2023-05-03T07:55:28.021Z,20.30
2023-05-03T07:56:28.060Z,20.19
2023-05-03T07:57:28.099Z,20.41
2023-05-03T07:58:38.882Z,20.46
2023-05-03T07:59:28.188Z,20.41
2023-05-03T08:00:28.227Z,20.67
2023-05-03T08:01:28.252Z,21.03
2023-05-03T08:02:28.399Z,21.18
2023-05-03T08:03:28.516Z,21.30
2023-05-03T08:04:28.653Z,20.93
2023-05-03T08:05:28.550Z,20.51
2023-05-03T08:06:28.459Z,20.25
2023-05-03T08:08:53.666Z,20.74
2023-05-03T08:11:06.511Z,20.41
2023-05-03T08:12:06.549Z,20.72
2023-05-03T08:13:06.598Z,20.71
2023-05-03T08:16:35.347Z,20.86
2023-05-03T08:18:37.016Z,21.46
2023-05-03T08:19:34.430Z,21.85
2023-05-03T08:20:34.497Z,21.66
2023-05-03T08:22:22.662Z,21.22
2023-05-03T08:23:22.297Z,20.71
2023-05-03T08:24:22.335Z,20.37
2023-05-03T08:25:22.375Z,20.68
2023-05-03T08:26:22.409Z,20.44
2023-05-03T08:27:22.452Z,20.16
2023-05-03T08:28:22.498Z,20.04
2023-05-03T08:29:22.522Z,20.38
2023-05-03T08:30:22.562Z,20.61
2023-05-03T08:31:22.694Z,20.11
2023-05-03T08:32:22.640Z,20.05
2023-05-03T08:33:22.675Z,20.26
2023-05-03T08:34:22.710Z,20.68
2023-05-03T08:35:22.752Z,20.72
2023-05-03T08:36:22.813Z,19.57
2023-05-03T08:37:22.830Z,19.63
2023-05-03T08:38:22.864Z,19.70
2023-05-03T08:39:22.911Z,20.27
2023-05-03T08:40:22.950Z,20.11
2023-05-03T08:41:22.976Z,20.02
2023-05-03T08:42:25.192Z,20.53
2023-05-03T08:43:24.069Z,20.49
2023-05-03T08:44:23.084Z,20.19
2023-05-03T08:45:23.123Z,20.01
2023-05-03T08:46:23.191Z,19.32
2023-05-03T08:47:23.193Z,19.74
2023-05-03T08:48:23.252Z,19.72
2023-05-03T08:49:23.290Z,20.20
2023-05-03T08:50:23.314Z,20.35
2023-05-03T08:51:23.396Z,20.49
2023-05-03T08:52:23.470Z,20.76
2023-05-03T08:53:23.416Z,21.00
2023-05-03T08:54:23.450Z,21.16
2023-05-03T08:55:23.486Z,21.12
2023-05-03T08:56:23.523Z,21.11
2023-05-03T08:57:23.564Z,21.12
2023-05-03T08:58:23.599Z,21.38
2023-05-03T08:59:23.639Z,21.41
2023-05-03T09:00:23.670Z,21.48
2023-05-03T09:01:23.815Z,21.30
2023-05-03T09:02:23.801Z,21.09
2023-05-03T09:03:23.896Z,21.15
2023-05-03T09:04:23.943Z,21.19
2023-05-03T09:05:23.858Z,21.30
2023-05-03T09:06:23.996Z,21.41
2023-05-03T09:07:23.937Z,21.22
2023-05-03T09:08:24.036Z,21.58
2023-05-03T09:09:24.003Z,21.86
2023-05-03T09:10:24.053Z,21.73
2023-05-03T09:11:24.080Z,21.52
2023-05-03T09:12:24.115Z,21.12
2023-05-03T09:13:24.153Z,20.66
2023-05-03T09:14:24.189Z,20.37
2023-05-03T09:15:24.224Z,20.25
2023-05-03T09:16:24.325Z,19.86
2023-05-03T09:17:24.298Z,20.12
2023-05-03T09:18:24.338Z,20.42
2023-05-03T09:19:24.370Z,20.81
2023-05-03T09:20:24.409Z,20.91
2023-05-03T09:21:24.448Z,20.60
2023-05-03T09:22:24.491Z,20.46
2023-05-03T09:23:24.525Z,20.76
2023-05-03T09:24:24.591Z,21.08
2023-05-03T09:25:24.599Z,21.40
2023-05-03T09:26:24.625Z,20.79
2023-05-03T09:27:24.666Z,20.96
2023-05-03T09:28:24.698Z,21.15
2023-05-03T09:29:24.733Z,21.41
2023-05-03T09:30:24.769Z,21.64
2023-05-03T09:31:24.828Z,21.48
2023-05-03T09:32:24.858Z,21.22
2023-05-03T09:33:24.877Z,20.96
2023-05-03T09:34:24.910Z,20.26
2023-05-03T09:35:24.948Z,19.83
2023-05-03T09:36:24.988Z,19.53
2023-05-03T09:37:25.023Z,19.61
2023-05-03T09:38:25.053Z,20.11
2023-05-03T09:39:25.088Z,20.75
2023-05-03T09:40:25.271Z,20.98
2023-05-03T09:41:25.158Z,21.15
2023-05-03T09:42:25.192Z,21.16
2023-05-03T09:43:25.224Z,20.57
2023-05-03T09:44:25.257Z,20.81
2023-05-03T09:45:25.295Z,20.30
2023-05-03T09:46:25.584Z,19.90
2023-05-03T09:47:25.472Z,20.18
2023-05-03T09:48:25.396Z,20.41
2023-05-03T09:49:25.430Z,20.58
2023-05-03T09:50:25.474Z,20.79
2023-05-03T09:51:25.495Z,21.04
2023-05-03T09:52:25.535Z,20.57
2023-05-03T09:53:25.566Z,20.51
2023-05-03T09:54:25.758Z,20.67
2023-05-03T09:55:25.632Z,21.11
2023-05-03T09:56:25.685Z,21.30
2023-05-03T09:57:25.702Z,20.85
2023-05-03T09:58:25.734Z,20.02
2023-05-03T09:59:25.774Z,19.86
2023-05-03T10:00:25.812Z,19.67
2023-05-03T10:01:25.910Z,19.89
2023-05-03T10:02:25.930Z,20.05
2023-05-03T10:03:25.909Z,20.46
2023-05-03T10:04:26.028Z,20.71
2023-05-03T10:05:25.970Z,20.67
2023-05-03T10:06:26.076Z,20.74
2023-05-03T10:07:26.059Z,21.13
2023-05-03T10:08:26.068Z,20.63
2023-05-03T10:09:26.098Z,20.42
2023-05-03T10:10:26.136Z,20.38
2023-05-03T10:11:26.170Z,20.78
2023-05-03T10:12:26.214Z,20.85
2023-05-03T10:13:26.235Z,20.68
2023-05-03T10:14:27.288Z,20.98
2023-05-03T10:15:26.300Z,21.09
2023-05-03T10:16:26.472Z,21.00
2023-05-03T10:17:42.919Z,20.88
2023-05-03T10:18:26.448Z,20.58
2023-05-03T10:19:27.669Z,20.58
2023-05-03T10:20:26.465Z,20.67
2023-05-03T10:21:26.500Z,20.74
2023-05-03T10:23:26.565Z,20.98
2023-05-03T10:24:26.658Z,20.96
2023-05-03T10:25:26.841Z,20.79
2023-05-03T10:26:26.656Z,20.78
2023-05-03T10:27:26.703Z,21.03
2023-05-03T10:28:26.771Z,21.40
2023-05-03T10:30:26.808Z,21.33
2023-05-03T10:32:26.890Z,21.67
2023-05-03T10:33:26.880Z,21.55
2023-05-03T10:34:26.911Z,21.58
2023-05-03T10:35:26.947Z,21.68
2023-05-03T10:36:32.886Z,21.64
2023-05-03T10:37:27.067Z,21.15
2023-05-03T10:38:27.041Z,20.71
2023-05-03T10:39:27.088Z,20.58
2023-05-03T10:40:27.103Z,20.76
2023-05-03T10:41:27.139Z,21.18
2023-05-03T10:42:27.170Z,21.41
2023-05-03T10:43:27.198Z,21.53
2023-05-03T10:44:27.279Z,22.02
2023-05-03T10:45:27.267Z,21.94
2023-05-03T10:46:27.339Z,21.76
2023-05-03T10:47:27.358Z,21.67
2023-05-03T10:48:27.363Z,21.46
2023-05-03T10:49:27.400Z,21.46
2023-05-03T10:50:27.441Z,21.48
2023-05-03T10:51:27.464Z,21.55
2023-05-03T10:52:27.493Z,21.30
2023-05-03T10:53:27.525Z,21.31
2023-05-03T10:54:27.558Z,21.52
2023-05-03T10:55:27.601Z,21.30
2023-05-03T10:56:27.622Z,20.72
2023-05-03T10:57:27.657Z,20.08
2023-05-03T10:58:27.686Z,20.20
2023-05-03T10:59:27.719Z,20.60
2023-05-03T11:00:27.795Z,20.74
2023-05-03T11:01:28.228Z,20.60
2023-05-03T11:02:27.868Z,20.58
2023-05-03T11:03:27.848Z,20.83
2023-05-03T11:04:29.147Z,20.56
2023-05-03T11:05:27.910Z,20.90
2023-05-03T11:06:27.994Z,20.96
2023-05-03T11:07:27.972Z,21.04
2023-05-03T11:08:28.001Z,21.31
2023-05-03T11:09:28.047Z,21.45
2023-05-03T11:10:28.077Z,20.76
2023-05-03T11:11:28.118Z,20.58
2023-05-03T11:12:30.750Z,20.58
2023-05-03T11:13:28.398Z,20.64
2023-05-03T11:14:28.187Z,20.51
2023-05-03T11:15:28.219Z,20.32
2023-05-03T11:16:28.426Z,19.83
2023-05-03T11:17:28.309Z,19.17
2023-05-03T11:18:28.312Z,19.12
2023-05-03T11:20:30.942Z,19.50
2023-05-03T11:21:30.974Z,19.40
2023-05-03T11:22:31.007Z,19.17
2023-05-03T11:23:31.037Z,19.20
2023-05-03T11:24:31.095Z,18.78
2023-05-03T11:25:31.097Z,18.81
2023-05-03T11:26:31.129Z,18.87
2023-05-03T11:27:31.167Z,18.94
2023-05-03T11:28:31.193Z,19.10
2023-05-03T11:29:31.232Z,18.91
2023-05-03T11:30:31.264Z,18.96
2023-05-03T11:31:31.980Z,19.02
2023-05-03T11:32:31.331Z,18.97
2023-05-03T11:33:31.346Z,18.84
2023-05-03T11:34:31.380Z,18.84
2023-05-03T11:35:31.424Z,18.90
2023-05-03T11:36:31.437Z,18.99
2023-05-03T11:37:31.471Z,18.99
2023-05-03T11:38:31.501Z,18.89
2023-05-03T11:39:31.536Z,18.91
2023-05-03T11:40:31.583Z,18.79
2023-05-03T11:41:31.604Z,18.61
2023-05-03T11:42:31.637Z,18.56
2023-05-03T11:43:31.715Z,18.54
2023-05-03T11:44:31.713Z,18.42
2023-05-03T11:45:31.932Z,18.49
2023-05-03T11:46:31.776Z,18.38
2023-05-03T11:47:31.877Z,18.31
2023-05-03T11:48:31.906Z,18.29
2023-05-03T11:49:31.841Z,18.51
2023-05-03T11:50:31.896Z,18.65
2023-05-03T11:51:31.922Z,18.74
2023-05-03T11:52:31.937Z,18.82
2023-05-03T11:53:32.171Z,18.72
2023-05-03T11:54:32.337Z,18.47
2023-05-03T11:55:32.033Z,18.34
2023-05-03T11:56:32.056Z,18.03
2023-05-03T11:57:32.346Z,18.03
2023-05-03T11:58:32.123Z,18.11
2023-05-03T11:59:32.153Z,18.29
2023-05-03T12:00:32.189Z,18.53
2023-05-03T12:01:32.237Z,18.56
2023-05-03T12:04:33.413Z,18.76
2023-05-03T12:05:32.993Z,18.94
2023-05-03T12:06:33.467Z,18.99
2023-05-03T12:07:32.597Z,18.96
2023-05-03T12:08:35.570Z,19.15
2023-05-03T12:09:32.613Z,19.12
2023-05-03T12:10:33.045Z,19.09
2023-05-03T12:13:20.653Z,18.81
2023-05-03T12:14:20.246Z,18.72
2023-05-03T12:15:21.502Z,18.61
2023-05-03T12:16:20.328Z,18.61
2023-05-03T12:17:20.399Z,18.60
2023-05-03T12:18:20.533Z,18.72
2023-05-03T12:19:23.144Z,18.68
2023-05-03T12:22:25.693Z,18.53
2023-05-03T12:23:20.928Z,18.47
2023-05-03T12:24:20.896Z,18.50
2023-05-03T12:25:21.129Z,18.78
2023-05-03T12:26:20.596Z,18.74
2023-05-03T12:27:22.523Z,18.66
2023-05-03T12:28:21.392Z,18.51
2023-05-03T12:29:22.924Z,18.50
2023-05-03T12:30:23.283Z,18.49
2023-05-03T12:31:22.689Z,18.60
2023-05-03T12:32:22.815Z,18.61
2023-05-03T12:33:22.571Z,18.71
2023-05-03T12:34:34.097Z,18.68
2023-05-03T12:35:21.193Z,18.86
2023-05-03T12:36:25.838Z,18.82
2023-05-03T12:37:22.397Z,18.75
2023-05-03T12:38:23.569Z,18.86
2023-05-03T12:39:22.108Z,18.86
2023-05-03T12:40:33.382Z,19.02
2023-05-03T12:41:52.283Z,19.07
2023-05-03T12:42:22.247Z,19.12
2023-05-03T12:43:21.091Z,19.13
2023-05-03T12:44:23.202Z,19.30
2023-05-03T12:45:21.744Z,19.30
2023-05-03T12:46:34.109Z,19.32
2023-05-03T12:47:28.411Z,19.35
2023-05-03T12:48:21.352Z,19.35
2023-05-03T12:49:23.288Z,19.42
2023-05-03T12:50:24.507Z,19.43
2023-05-03T12:51:25.665Z,19.50
2023-05-03T12:52:37.290Z,19.46
2023-05-03T12:53:23.555Z,19.61
2023-05-03T12:54:21.459Z,19.56
2023-05-03T12:55:24.860Z,19.35
2023-05-03T12:56:24.495Z,19.06
2023-05-03T12:59:40.172Z,18.97
2023-05-03T13:00:25.259Z,18.87
2023-05-03T13:02:18.876Z,18.84
2023-05-03T13:03:18.170Z,18.81
2023-05-03T13:03:22.765Z,18.79
2023-05-03T13:04:55.764Z,18.79
2023-05-03T13:07:27.863Z,18.86
2023-05-03T13:08:22.688Z,18.90
2023-05-03T13:10:21.930Z,18.86
2023-05-03T13:11:22.059Z,18.82
2023-05-03T13:12:22.381Z,18.91
2023-05-03T13:13:21.960Z,18.86
2023-05-03T13:16:22.062Z,18.79
2023-05-03T13:17:22.058Z,18.96
2023-05-03T13:18:22.125Z,19.02
2023-05-03T13:19:22.115Z,19.24
2023-05-03T13:20:22.160Z,19.27
2023-05-03T13:21:22.191Z,19.38
2023-05-03T13:22:22.222Z,19.47
2023-05-03T13:23:22.248Z,19.27
2023-05-03T13:24:22.376Z,19.27
2023-05-03T13:25:22.616Z,19.16
2023-05-03T13:26:22.320Z,19.05
2023-05-03T13:27:22.357Z,18.93
2023-05-03T13:28:22.382Z,18.79
2023-05-03T13:29:22.418Z,18.79
2023-05-03T13:30:22.440Z,18.78
2023-05-03T13:31:22.536Z,18.76
2023-05-03T13:32:22.576Z,18.82
2023-05-03T13:33:22.740Z,18.91
2023-05-03T13:34:22.562Z,18.93
2023-05-03T13:35:22.593Z,19.07
2023-05-03T13:36:22.620Z,19.12
2023-05-03T13:37:22.657Z,19.23
2023-05-03T13:38:22.679Z,19.17